createdAt,value
2023-02-23T00:02:08.434Z,97541.41
2023-02-23T00:04:36.046Z,97548.00
2023-02-23T00:07:02.934Z,97543.72
2023-02-23T00:09:35.433Z,97543.38
2023-02-23T00:12:07.958Z,97537.47
2023-02-23T00:14:37.690Z,97532.19
2023-02-23T00:17:04.994Z,97531.03
2023-02-23T00:19:34.002Z,97532.19
2023-02-23T00:22:01.181Z,97531.50
2023-02-23T00:24:27.948Z,97527.53
2023-02-23T00:26:54.467Z,97526.72
2023-02-23T00:29:23.628Z,97536.94
2023-02-23T00:31:51.977Z,97538.38
2023-02-23T00:34:23.970Z,97533.09
2023-02-23T00:36:55.501Z,97530.78
2023-02-23T00:39:26.793Z,97526.72
2023-02-23T00:41:55.679Z,97532.97
2023-02-23T00:44:24.217Z,97533.09
2023-02-23T00:46:51.538Z,97538.84
2023-02-23T00:49:19.799Z,97531.53
2023-02-23T00:51:46.967Z,97507.03
2023-02-23T00:54:14.817Z,97508.50
2023-02-23T00:56:41.402Z,97505.69
2023-02-23T00:59:08.372Z,97490.56
2023-02-23T01:01:35.667Z,97484.16
2023-02-23T01:04:02.299Z,97496.13
2023-02-23T01:06:29.203Z,97485.56
2023-02-23T01:08:57.616Z,97466.34
2023-02-23T01:11:31.034Z,97463.53
2023-02-23T01:13:59.901Z,97456.63
2023-02-23T01:16:30.460Z,97448.56
2023-02-23T01:19:00.916Z,97421.69
2023-02-23T01:21:30.187Z,97435.19
2023-02-23T01:23:57.267Z,97417.25
2023-02-23T01:26:27.556Z,97405.78
2023-02-23T01:28:57.465Z,97390.44
2023-02-23T01:31:25.196Z,97386.00
2023-02-23T01:34:00.060Z,97370.38
2023-02-23T01:36:29.299Z,97370.72
2023-02-23T01:39:00.146Z,97364.44
2023-02-23T01:41:29.871Z,97344.66
2023-02-23T01:43:56.280Z,97333.47
2023-02-23T01:46:22.842Z,97314.41
2023-02-23T01:48:49.891Z,97299.94
2023-02-23T01:51:21.066Z,97292.84
2023-02-23T01:53:57.945Z,97278.53
2023-02-23T01:56:31.527Z,97256.50
2023-02-23T01:59:02.460Z,97230.66
2023-02-23T02:01:30.292Z,97208.50
2023-02-23T02:04:01.286Z,97187.91
2023-02-23T02:06:29.037Z,97162.13
2023-02-23T02:09:00.121Z,97118.06
2023-02-23T02:11:31.006Z,97093.09
2023-02-23T02:14:19.648Z,97072.72
2023-02-23T02:17:02.564Z,97030.00
2023-02-23T02:20:26.525Z,97000.25
2023-02-23T02:22:59.070Z,96951.94
2023-02-23T02:25:42.870Z,96939.47
2023-02-23T02:28:46.558Z,96917.09
2023-02-23T02:31:57.401Z,96899.84
2023-02-23T02:34:57.201Z,96894.56
2023-02-23T02:38:01.784Z,96896.22
2023-02-23T02:40:56.615Z,96880.09
2023-02-23T02:43:35.981Z,96879.75
2023-02-23T02:46:23.565Z,96893.53
2023-02-23T02:49:13.953Z,96913.75
2023-02-23T02:51:49.020Z,96931.03
2023-02-23T02:54:29.621Z,96933.47
2023-02-23T02:57:00.445Z,96939.72
2023-02-23T02:59:46.671Z,96946.47
2023-02-23T03:02:41.245Z,96933.03
2023-02-23T03:05:33.143Z,96959.09
2023-02-23T03:08:30.138Z,96961.28
2023-02-23T03:11:29.934Z,96977.69
2023-02-23T03:14:36.423Z,96972.44
2023-02-23T03:17:29.566Z,96989.06
2023-02-23T03:20:24.666Z,96997.41
2023-02-23T03:23:15.025Z,97000.22
2023-02-23T03:26:07.348Z,97023.09
2023-02-23T03:29:00.986Z,97007.59
2023-02-23T03:31:56.379Z,97010.41
2023-02-23T03:34:51.760Z,97014.53
2023-02-23T03:37:56.018Z,97022.09
2023-02-23T03:40:47.015Z,97029.59
2023-02-23T03:43:36.905Z,97037.50
2023-02-23T03:46:26.261Z,97039.00
2023-02-23T03:49:14.741Z,97031.06
2023-02-23T03:52:02.238Z,97057.25
2023-02-23T03:55:04.721Z,97049.66
2023-02-23T03:57:53.019Z,97057.88
2023-02-23T04:00:46.372Z,97061.66
2023-02-23T04:03:36.308Z,97083.03
2023-02-23T04:06:26.174Z,97071.66
2023-02-23T04:09:12.871Z,97063.78
2023-02-23T04:12:09.085Z,97085.84
2023-02-23T04:14:48.790Z,97091.44
2023-02-23T04:17:16.558Z,97094.69
2023-02-23T04:19:52.953Z,97110.50
2023-02-23T04:22:20.506Z,97101.94
2023-02-23T04:24:47.352Z,97116.25
2023-02-23T04:27:15.141Z,97131.53
2023-02-23T04:29:42.431Z,97124.34
2023-02-23T04:32:18.111Z,97130.88
2023-02-23T04:34:45.480Z,97149.31
2023-02-23T04:37:13.373Z,97154.06
2023-02-23T04:39:40.184Z,97156.53
2023-02-23T04:42:06.641Z,97163.44
2023-02-23T04:44:33.046Z,97151.28
2023-02-23T04:46:59.439Z,97159.50
2023-02-23T04:49:25.845Z,97144.69
2023-02-23T04:51:52.329Z,97143.53
2023-02-23T04:54:18.751Z,97156.88
2023-02-23T04:56:46.048Z,97149.94
2023-02-23T04:59:13.290Z,97148.66
2023-02-23T05:01:39.877Z,97149.16
2023-02-23T05:04:06.320Z,97148.47
2023-02-23T05:06:32.932Z,97141.75
2023-02-23T05:09:00.325Z,97139.28
2023-02-23T05:11:27.773Z,97137.31
2023-02-23T05:13:54.611Z,97130.25
2023-02-23T05:16:22.058Z,97125.31
2023-02-23T05:18:48.555Z,97125.31
2023-02-23T05:21:15.470Z,97117.88
2023-02-23T05:23:42.289Z,97130.88
2023-02-23T05:26:11.207Z,97138.13
2023-02-23T05:28:39.542Z,97149.63
2023-02-23T05:31:06.842Z,97143.38
2023-02-23T05:33:34.339Z,97156.69
2023-02-23T05:36:05.609Z,97148.66
2023-02-23T05:38:32.145Z,97151.75
2023-02-23T05:40:58.561Z,97165.41
2023-02-23T05:43:25.029Z,97167.53
2023-02-23T05:45:51.502Z,97173.63
2023-02-23T05:48:17.993Z,97180.88
2023-02-23T05:50:44.411Z,97182.34
2023-02-23T05:53:11.255Z,97172.81
2023-02-23T05:55:37.708Z,97166.38
2023-02-23T05:58:04.166Z,97185.81
2023-02-23T06:00:30.616Z,97202.56
2023-02-23T06:02:57.278Z,97194.19
2023-02-23T06:05:23.781Z,97197.00
2023-02-23T06:07:50.197Z,97192.03
2023-02-23T06:10:16.989Z,97211.81
2023-02-23T06:12:43.423Z,97223.31
2023-02-23T06:15:10.310Z,97224.97
2023-02-23T06:17:37.582Z,97227.91
2023-02-23T06:20:07.070Z,97231.53
2023-02-23T06:22:33.855Z,97247.63
2023-02-23T06:25:00.278Z,97252.41
2023-02-23T06:27:26.719Z,97257.53
2023-02-23T06:29:53.650Z,97262.13
2023-02-23T06:32:20.056Z,97269.84
2023-02-23T06:34:46.515Z,97271.66
2023-02-23T06:37:12.931Z,97282.19
2023-02-23T06:39:39.408Z,97278.72
2023-02-23T06:42:06.158Z,97287.63
2023-02-23T06:44:35.449Z,97288.59
2023-02-23T06:47:05.694Z,97291.09
2023-02-23T06:49:32.369Z,97303.75
2023-02-23T06:51:58.933Z,97307.03
2023-02-23T06:54:26.528Z,97325.31
2023-02-23T06:56:53.269Z,97328.09
2023-02-23T06:59:19.852Z,97313.44
2023-02-23T07:01:46.441Z,97329.56
2023-02-23T07:04:15.540Z,97321.03
2023-02-23T07:06:43.099Z,97314.28
2023-02-23T07:09:10.894Z,97321.03
2023-02-23T07:11:37.338Z,97326.94
2023-02-23T07:14:03.761Z,97332.88
2023-02-23T07:16:30.469Z,97347.06
2023-02-23T07:18:56.951Z,97358.22
2023-02-23T07:21:23.592Z,97359.22
2023-02-23T07:23:50.140Z,97361.38
2023-02-23T07:26:18.392Z,97376.66
2023-02-23T07:28:45.225Z,97384.38
2023-02-23T07:31:11.699Z,97371.09
2023-02-23T07:33:38.283Z,97374.88
2023-02-23T07:36:05.020Z,97393.47
2023-02-23T07:38:31.470Z,97391.19
2023-02-23T07:40:57.984Z,97383.78
2023-02-23T07:43:24.616Z,97406.00
2023-02-23T07:45:51.652Z,97406.00
2023-02-23T07:48:19.417Z,97411.28
2023-02-23T07:50:46.463Z,97413.28
2023-02-23T07:53:13.065Z,97424.78
2023-02-23T07:55:40.297Z,97435.66
2023-02-23T07:58:07.473Z,97437.31
2023-02-23T08:00:36.588Z,97438.28
2023-02-23T08:03:03.080Z,97441.09
2023-02-23T08:05:30.358Z,97445.56
2023-02-23T08:07:58.108Z,97451.16
2023-02-23T08:10:25.274Z,97446.84
2023-02-23T08:12:51.785Z,97443.56
2023-02-23T08:15:18.677Z,97429.03
2023-02-23T08:17:45.287Z,97437.31
2023-02-23T08:20:11.904Z,97449.81
2023-02-23T08:22:48.945Z,97460.88
2023-02-23T08:25:16.860Z,97456.09
2023-02-23T08:27:43.459Z,97459.38
2023-02-23T08:30:10.723Z,97457.56
2023-02-23T08:32:37.240Z,97469.72
2023-02-23T08:35:03.902Z,97476.50
2023-02-23T08:37:30.819Z,97480.94
2023-02-23T08:39:57.647Z,97485.72
2023-02-23T08:42:24.275Z,97494.94
2023-02-23T08:44:51.009Z,97495.78
2023-02-23T08:47:21.849Z,97498.56
2023-02-23T08:49:48.950Z,97506.44
2023-02-23T08:52:15.444Z,97514.84
2023-02-23T08:54:41.864Z,97518.00
2023-02-23T08:57:09.835Z,97533.84
2023-02-23T08:59:39.230Z,97534.31
2023-02-23T09:02:07.520Z,97535.28
2023-02-23T09:04:37.490Z,97547.66
2023-02-23T09:07:05.396Z,97548.78
2023-02-23T09:09:32.640Z,97551.88
2023-02-23T09:11:59.974Z,97550.75
2023-02-23T09:14:27.249Z,97558.13
2023-02-23T09:16:53.873Z,97566.59
2023-02-23T09:19:20.450Z,97565.88
2023-02-23T09:21:46.891Z,97574.16
2023-02-23T09:24:14.263Z,97571.34
2023-02-23T09:26:44.951Z,97562.28
2023-02-23T09:29:12.283Z,97565.72
2023-02-23T09:31:38.855Z,97562.97
2023-02-23T09:34:05.541Z,97560.16
2023-02-23T09:36:32.387Z,97576.13
2023-02-23T09:38:58.886Z,97584.91
2023-02-23T09:41:56.854Z,97591.66
2023-02-23T09:44:38.430Z,97596.91
2023-02-23T09:47:13.888Z,97607.13
2023-02-23T09:49:44.703Z,97611.78
2023-02-23T09:52:20.113Z,97627.50
2023-02-23T09:54:47.258Z,97613.44
2023-02-23T09:57:35.440Z,97622.66
2023-02-23T10:00:02.905Z,97627.41
2023-02-23T10:02:37.645Z,97633.22
2023-02-23T10:05:07.610Z,97647.16
2023-02-23T10:08:13.332Z,97637.19
2023-02-23T10:10:58.874Z,97634.44
2023-02-23T10:13:31.872Z,97631.16
2023-02-23T10:16:19.899Z,97650.56
2023-02-23T10:18:56.539Z,97653.91
2023-02-23T10:21:57.353Z,97650.41
2023-02-23T10:24:55.575Z,97661.84
2023-02-23T10:27:29.409Z,97682.56
2023-02-23T10:29:57.701Z,97681.78
2023-02-23T10:32:34.847Z,97682.84
2023-02-23T10:35:01.755Z,97690.13
2023-02-23T10:37:28.384Z,97696.75
2023-02-23T10:39:54.919Z,97699.69
2023-02-23T10:42:33.828Z,97715.00
2023-02-23T10:45:01.208Z,97717.09
2023-02-23T10:47:34.758Z,97701.88
2023-02-23T10:50:03.023Z,97708.59
2023-02-23T10:52:43.068Z,97702.69
2023-02-23T10:55:27.629Z,97715.75
2023-02-23T10:58:08.312Z,97704.06
2023-02-23T11:00:38.719Z,97717.56
2023-02-23T11:03:19.274Z,97713.50
2023-02-23T11:05:53.912Z,97706.06
2023-02-23T11:08:25.273Z,97722.53
2023-02-23T11:11:20.292Z,97729.97
2023-02-23T11:13:49.170Z,97734.19
2023-02-23T11:16:20.226Z,97759.44
2023-02-23T11:21:22.544Z,97739.38
2023-02-23T11:23:52.083Z,97753.59
2023-02-23T11:26:43.287Z,97743.16
2023-02-23T11:29:35.227Z,97750.56
2023-02-23T11:32:13.544Z,97762.72
2023-02-23T11:34:41.025Z,97755.03
2023-02-23T11:37:31.171Z,97775.38
2023-02-23T11:40:03.801Z,97766.34
2023-02-23T11:42:33.957Z,97768.06
2023-02-23T11:45:20.614Z,97780.69
2023-02-23T11:47:49.926Z,97780.25
2023-02-23T11:50:29.918Z,97780.84
2023-02-23T11:53:15.460Z,97796.69
2023-02-23T11:55:51.538Z,97802.88
2023-02-23T11:58:32.665Z,97812.44
2023-02-23T12:01:12.329Z,97817.09
2023-02-23T12:03:47.820Z,97813.22
2023-02-23T12:06:38.206Z,97820.47
2023-02-23T12:09:23.853Z,97834.25
2023-02-23T12:12:04.625Z,97840.78
2023-02-23T12:14:40.264Z,97838.31
2023-02-23T12:17:18.545Z,97841.31
2023-02-23T12:19:54.967Z,97842.91
2023-02-23T12:22:33.001Z,97855.97
2023-02-23T12:25:05.080Z,97870.81
2023-02-23T12:27:59.042Z,97866.44
2023-02-23T12:30:49.093Z,97863.13
2023-02-23T12:33:30.216Z,97875.44
2023-02-23T12:36:18.456Z,97866.06
2023-02-23T12:38:54.587Z,97876.59
2023-02-23T12:41:36.858Z,97897.09
2023-02-23T12:44:24.993Z,97888.03
2023-02-23T12:46:54.935Z,97890.81
2023-02-23T12:49:41.029Z,97898.44
2023-02-23T12:52:17.629Z,97882.47
2023-02-23T12:54:47.040Z,97894.47
2023-02-23T12:57:48.337Z,97899.31
2023-02-23T13:01:03.086Z,97885.91
2023-02-23T13:03:29.737Z,97900.97
2023-02-23T13:06:02.204Z,97895.56
2023-02-23T13:09:06.081Z,97897.22
2023-02-23T13:11:52.485Z,97900.41
2023-02-23T13:14:43.458Z,97907.19
2023-02-23T13:17:25.647Z,97904.38
2023-02-23T13:20:25.379Z,97899.47
2023-02-23T13:23:41.895Z,97897.69
2023-02-23T13:26:28.461Z,97890.03
2023-02-23T13:28:57.652Z,97901.13
2023-02-23T13:31:27.190Z,97908.69
2023-02-23T13:33:58.165Z,97902.09
2023-02-23T13:36:27.993Z,97906.53
2023-02-23T13:39:19.998Z,97904.41
2023-02-23T13:41:59.159Z,97898.13
2023-02-23T13:44:34.564Z,97899.38
2023-02-23T13:47:14.925Z,97895.97
2023-02-23T13:49:55.900Z,97902.41
2023-02-23T13:52:39.967Z,97899.09
2023-02-23T13:55:40.018Z,97907.47
2023-02-23T13:58:16.467Z,97903.44
2023-02-23T14:00:43.648Z,97912.19
2023-02-23T14:03:24.484Z,97918.16
2023-02-23T14:05:57.198Z,97912.19
2023-02-23T14:08:32.921Z,97923.69
2023-02-23T14:10:59.481Z,97914.84
2023-02-23T14:13:35.522Z,97930.72
2023-02-23T14:16:09.740Z,97934.84
2023-02-23T14:19:04.598Z,97944.50
2023-02-23T14:21:45.874Z,97949.50
2023-02-23T14:24:25.831Z,97958.16
2023-02-23T14:27:07.196Z,97957.47
2023-02-23T14:29:40.838Z,97965.25
2023-02-23T14:32:13.049Z,97961.47
2023-02-23T14:34:58.883Z,97969.81
2023-02-23T14:37:36.968Z,97970.97
2023-02-23T14:40:12.728Z,97953.38
2023-02-23T14:42:41.304Z,97964.81
2023-02-23T14:45:27.260Z,97950.19
2023-02-23T14:47:59.932Z,97938.00
2023-02-23T14:50:29.755Z,97921.00
2023-02-23T14:52:57.345Z,97919.53
2023-02-23T14:55:31.010Z,97906.94
2023-02-23T14:57:58.309Z,97894.41
2023-02-23T15:00:43.097Z,97866.88
2023-02-23T15:03:12.442Z,97867.38
2023-02-23T15:05:48.495Z,97856.91
2023-02-23T15:08:23.218Z,97856.25
2023-02-23T15:10:53.135Z,97843.63
2023-02-23T15:16:07.599Z,97824.63
2023-02-23T15:19:30.427Z,97811.75
2023-02-23T15:21:59.371Z,97791.22
2023-02-23T15:24:31.101Z,97782.03
2023-02-23T15:26:58.112Z,97772.13
2023-02-23T15:29:32.695Z,97762.41
2023-02-23T15:32:19.099Z,97741.88
2023-02-23T15:34:46.593Z,97735.31
2023-02-23T15:37:25.222Z,97726.84
2023-02-23T15:39:57.714Z,97724.22
2023-02-23T15:42:46.513Z,97713.00
2023-02-23T15:45:19.876Z,97694.47
2023-02-23T15:47:46.695Z,97692.47
2023-02-23T15:50:27.585Z,97683.56
2023-02-23T15:53:02.253Z,97685.25
2023-02-23T15:55:35.434Z,97678.31
2023-02-23T15:58:30.538Z,97667.06
2023-02-23T16:01:08.096Z,97659.44
2023-02-23T16:03:37.676Z,97669.41
2023-02-23T16:06:21.115Z,97658.81
2023-02-23T16:09:24.083Z,97643.97
2023-02-23T16:12:09.477Z,97638.72
2023-02-23T16:14:58.253Z,97629.78
2023-02-23T16:17:27.347Z,97610.09
2023-02-23T16:19:58.140Z,97610.22
2023-02-23T16:22:27.017Z,97582.31
2023-02-23T16:25:01.947Z,97589.22
2023-02-23T16:27:30.074Z,97594.72
2023-02-23T16:30:32.246Z,97576.69
2023-02-23T16:33:22.869Z,97548.88
2023-02-23T16:35:52.880Z,97548.00
2023-02-23T16:38:33.465Z,97558.72
2023-02-23T16:41:02.774Z,97538.06
2023-02-23T16:43:32.469Z,97511.38
2023-02-23T16:45:59.454Z,97537.06
2023-02-23T16:48:26.130Z,97519.03
2023-02-23T16:50:52.724Z,97517.16
2023-02-23T16:53:23.286Z,97489.69
2023-02-23T16:55:56.983Z,97477.38
2023-02-23T16:58:28.810Z,97437.09
2023-02-23T17:00:56.613Z,97384.81
2023-02-23T17:03:31.366Z,97310.03
2023-02-23T17:05:59.258Z,97236.91
2023-02-23T17:08:26.401Z,97143.22
2023-02-23T17:10:57.271Z,97065.34
2023-02-23T17:13:26.983Z,96990.31
2023-02-23T17:15:56.573Z,96899.47
2023-02-23T17:18:28.577Z,96791.81
2023-02-23T17:20:57.175Z,96697.09
2023-02-23T17:23:27.895Z,96656.47
2023-02-23T17:25:56.174Z,96618.38
2023-02-23T17:28:23.037Z,96602.31
2023-02-23T17:30:50.171Z,96679.31
2023-02-23T17:33:17.643Z,96906.03
2023-02-23T17:35:44.233Z,97768.22
2023-02-23T17:38:13.558Z,97737.72
2023-02-23T17:40:41.754Z,97718.28
2023-02-23T17:43:36.852Z,97709.34
2023-02-23T17:46:04.525Z,97721.06
2023-02-23T17:48:34.709Z,97698.94
2023-02-23T17:51:08.700Z,97713.78
2023-02-23T17:53:35.426Z,97695.47
2023-02-23T17:56:02.548Z,97688.53
2023-02-23T17:58:29.224Z,97647.63
2023-02-23T18:00:58.761Z,97642.03
2023-02-23T18:03:34.547Z,97636.06
2023-02-23T18:06:10.917Z,97650.59
2023-02-23T18:08:39.123Z,97649.25
2023-02-23T18:11:06.807Z,96526.00
2023-02-23T18:13:33.959Z,96529.00
2023-02-23T18:16:09.559Z,96523.19
2023-02-23T18:18:45.117Z,96534.34
2023-02-23T18:21:17.428Z,96552.63
2023-02-23T18:23:44.965Z,96560.94
2023-02-23T18:26:15.315Z,96581.38
2023-02-23T18:28:45.879Z,96588.41
2023-02-23T18:31:25.932Z,96604.09
2023-02-23T18:33:53.159Z,96590.91
2023-02-23T18:36:26.343Z,96589.75
2023-02-23T18:38:53.138Z,96583.41
2023-02-23T18:41:19.969Z,96586.28
2023-02-23T18:43:49.452Z,96583.41
2023-02-23T18:46:17.525Z,96579.56
2023-02-23T18:48:44.381Z,96584.53
2023-02-23T18:51:14.647Z,96583.41
2023-02-23T18:53:42.018Z,96580.13
2023-02-23T18:56:23.240Z,96592.69
2023-02-23T18:58:53.317Z,96613.94
2023-02-23T19:01:24.240Z,96586.56
2023-02-23T19:03:52.624Z,96582.97
2023-02-23T19:06:23.406Z,96586.97
2023-02-23T19:08:54.069Z,96593.50
2023-02-23T19:11:28.877Z,96602.00
2023-02-23T19:13:57.881Z,96622.59
2023-02-23T19:16:25.916Z,96639.94
2023-02-23T19:18:53.213Z,96650.50
2023-02-23T19:21:24.198Z,96653.75
2023-02-23T19:23:51.766Z,96661.91
2023-02-23T19:26:19.048Z,96654.66
2023-02-23T19:28:46.500Z,96657.41
2023-02-23T19:31:17.125Z,96676.50
2023-02-23T19:33:43.767Z,96703.00
2023-02-23T19:36:13.933Z,96711.72
2023-02-23T19:38:42.453Z,96706.00
2023-02-23T19:41:14.111Z,96706.09
2023-02-23T19:43:41.685Z,96695.81
2023-02-23T19:46:11.595Z,96702.59
2023-02-23T19:48:38.680Z,96695.28
2023-02-23T19:51:06.375Z,96701.31
2023-02-23T19:53:33.081Z,96695.16
2023-02-23T19:56:08.052Z,96690.25
2023-02-23T19:58:35.580Z,96662.78
2023-02-23T20:01:07.811Z,96670.69
2023-02-23T20:03:34.458Z,96661.06
2023-02-23T20:06:05.457Z,96672.63
2023-02-23T20:08:32.899Z,96684.63
2023-02-23T20:11:01.594Z,96674.09
2023-02-23T20:13:28.304Z,96660.09
2023-02-23T20:16:09.488Z,96662.47
2023-02-23T20:18:38.679Z,96666.47
2023-02-23T20:21:15.385Z,96656.19
2023-02-23T20:23:43.556Z,96659.00
2023-02-23T20:26:15.236Z,96669.91
2023-02-23T20:28:42.209Z,96665.94
2023-02-23T20:31:17.419Z,96649.41
2023-02-23T20:33:44.150Z,96646.19
2023-02-23T20:36:12.152Z,96669.56
2023-02-23T20:38:39.046Z,96676.25
2023-02-23T20:41:07.806Z,96678.63
2023-02-23T20:43:34.762Z,96674.25
2023-02-23T20:46:02.832Z,96632.94
2023-02-23T20:48:31.426Z,96680.84
2023-02-23T20:50:58.923Z,96677.53
2023-02-23T20:53:26.438Z,96677.53
2023-02-23T20:55:53.837Z,96687.09
2023-02-23T20:58:26.187Z,96678.84
2023-02-23T21:00:57.174Z,96696.16
2023-02-23T21:03:25.123Z,96709.25
2023-02-23T21:05:52.086Z,96715.72
2023-02-23T21:08:21.552Z,96739.47
2023-02-23T21:10:50.304Z,96745.09
2023-02-23T21:13:20.384Z,96762.84
2023-02-23T21:15:56.658Z,96771.56
2023-02-23T21:18:23.086Z,96785.91
2023-02-23T21:20:49.516Z,96782.75
2023-02-23T21:23:17.741Z,96801.06
2023-02-23T21:25:44.232Z,96808.03
2023-02-23T21:28:10.841Z,96816.22
2023-02-23T21:30:37.260Z,96816.03
2023-02-23T21:33:04.013Z,96822.47
2023-02-23T21:35:30.526Z,96842.84
2023-02-23T21:37:57.331Z,96844.56
2023-02-23T21:40:24.907Z,96855.03
2023-02-23T21:42:52.297Z,96866.25
2023-02-23T21:45:19.417Z,96883.38
2023-02-23T21:47:47.642Z,96895.25
2023-02-23T21:50:19.641Z,96918.03
2023-02-23T21:52:48.649Z,96927.41
2023-02-23T21:55:24.486Z,96938.75
2023-02-23T21:57:52.058Z,96952.97
2023-02-23T22:00:19.389Z,96960.28
2023-02-23T22:02:47.171Z,96968.06
2023-02-23T22:05:15.231Z,96987.00
2023-02-23T22:07:47.270Z,97005.00
2023-02-23T22:10:13.679Z,97016.34
2023-02-23T22:12:40.209Z,97024.72
2023-02-23T22:15:07.966Z,97029.69
2023-02-23T22:17:36.070Z,97037.28
2023-02-23T22:20:05.425Z,97053.41
2023-02-23T22:22:36.324Z,97056.97
2023-02-23T22:25:04.823Z,97066.84
2023-02-23T22:27:31.802Z,97079.19
2023-02-23T22:30:02.168Z,97089.59
2023-02-23T22:32:33.378Z,97097.78
2023-02-23T22:35:01.001Z,97104.06
2023-02-23T22:37:32.109Z,97112.00
2023-02-23T22:40:09.145Z,97079.81
2023-02-23T22:42:35.679Z,97113.94
2023-02-23T22:45:02.148Z,97120.38
2023-02-23T22:47:29.136Z,97108.44
2023-02-23T22:49:55.544Z,97117.22
2023-02-23T22:52:22.183Z,97118.88
2023-02-23T22:54:51.265Z,97120.72
2023-02-23T22:57:17.712Z,97122.84
2023-02-23T22:59:55.145Z,97132.41
2023-02-23T23:02:22.744Z,97135.69
2023-02-23T23:04:49.567Z,97133.72
2023-02-23T23:07:16.045Z,97158.75
2023-02-23T23:09:42.430Z,97153.50
2023-02-23T23:12:09.260Z,97155.97
2023-02-23T23:14:35.799Z,97175.44
2023-02-23T23:17:02.294Z,97165.69
2023-02-23T23:19:29.777Z,97153.19
2023-02-23T23:21:56.477Z,97166.19
2023-02-23T23:24:24.416Z,97182.78
2023-02-23T23:26:56.052Z,97189.72
2023-02-23T23:29:25.871Z,97194.16
2023-02-23T23:31:53.753Z,97171.97
2023-02-23T23:34:21.844Z,97167.03
2023-02-23T23:36:49.683Z,97196.28
2023-02-23T23:39:26.212Z,97200.25
2023-02-23T23:41:53.826Z,97198.59
2023-02-23T23:44:24.146Z,97210.78
2023-02-23T23:46:51.479Z,97198.97
2023-02-23T23:49:21.220Z,97192.34
2023-02-23T23:51:51.718Z,97185.28
2023-02-23T23:54:25.091Z,97176.88
2023-02-23T23:56:52.080Z,97194.47
2023-02-23T23:59:21.683Z,97199.41
